Stations météo

réclame
Mon MeteoGroup
Dobbiaco, Italie (16033): Température de l'air & dewpoint: 18.04.2018 10:00:00 - 24.04.2018 10:00:00 (CEST)Dobbiaco, Italie (16033): Vitesse du vent: 18.04.2018 10:00:00 - 24.04.2018 10:00:00 (CEST)Dobbiaco, Italie (16033): Direction du vent: 18.04.2018 10:00:00 - 24.04.2018 10:00:00 (CEST)Dobbiaco, Italie (16033): visibility: 18.04.2018 10:00:00 - 24.04.2018 10:00:00 (CEST)
Date & Time tt [°C] td [°C] ff [km/h] ff [knt] dd vv [km]
24.04.2018 10:00:00 - - - - - -
24.04.2018 09:00:00 - - - - - -
24.04.2018 08:00:00 9,8 8,7 0 0 N 10
24.04.2018 07:00:00 - - - - - -
24.04.2018 06:00:00 - - - - - -
24.04.2018 05:00:00 - - - - - -
24.04.2018 04:00:00 - - - - - -
24.04.2018 03:00:00 - - - - - -
24.04.2018 02:00:00 - - - - - -
24.04.2018 01:00:00 - - - - - -
24.04.2018 00:00:00 - - - - - -
23.04.2018 23:00:00 - - - - - -
23.04.2018 22:00:00 - - - - - -
23.04.2018 21:00:00 - - - - - -
23.04.2018 20:00:00 13,8 9,8 22 12 E 18
23.04.2018 19:00:00 14,0 10,0 22 12 - 10
23.04.2018 18:00:00 16,0 11,0 18 10 - 10
23.04.2018 17:00:00 19,0 5,1 15 8 ENE 18
23.04.2018 16:00:00 22,0 4,0 11 6 - 10
23.04.2018 15:00:00 21,0 3,0 8 4 - 10
23.04.2018 14:00:00 20,6 4,6 0 0 N 25
23.04.2018 13:00:00 19,0 5,0 4 2 - 10
23.04.2018 12:00:00 19,0 7,0 8 4 - 10
23.04.2018 11:00:00 15,6 6,6 5 3 SW 15
23.04.2018 10:00:00 14,0 9,0 5 3 - 10
23.04.2018 09:00:00 11,0 8,0 4 2 - 10
23.04.2018 08:00:00 8,8 7,1 0 0 N 10
23.04.2018 07:00:00 - - - - - -
23.04.2018 06:00:00 - - - - - -
23.04.2018 05:00:00 - - - - - -
23.04.2018 04:00:00 - - - - - -
23.04.2018 03:00:00 - - - - - -
23.04.2018 02:00:00 - - - - - -
23.04.2018 01:00:00 - - - - - -
23.04.2018 00:00:00 - - - - - -
22.04.2018 23:00:00 - - - - - -
22.04.2018 22:00:00 - - - - - -
22.04.2018 21:00:00 - - - - - -
22.04.2018 20:00:00 18,0 5,9 8 4 NNE 15
22.04.2018 19:00:00 20,0 3,0 5 3 - 10
22.04.2018 18:00:00 21,0 2,0 - - - 10
22.04.2018 17:00:00 21,1 1,4 5 3 NNW 28
22.04.2018 16:00:00 22,0 1,0 8 4 - 10
22.04.2018 15:00:00 21,0 0,0 8 4 NNW 10
22.04.2018 14:00:00 20,8 0,1 5 3 NNE 28
22.04.2018 13:00:00 20,0 2,0 5 3 - 10
22.04.2018 12:00:00 18,0 5,0 8 4 - 10
22.04.2018 11:00:00 15,6 5,8 4 2 WNW 20
22.04.2018 10:00:00 14,0 6,0 8 4 - 10
22.04.2018 09:00:00 11,0 7,0 5 3 - 10
22.04.2018 08:00:00 8,3 5,9 4 2 E 18
22.04.2018 07:00:00 - - - - - -
22.04.2018 06:00:00 - - - - - -
22.04.2018 05:00:00 - - - - - -
22.04.2018 04:00:00 - - - - - -
22.04.2018 03:00:00 - - - - - -
22.04.2018 02:00:00 - - - - - -
22.04.2018 01:00:00 - - - - - -
22.04.2018 00:00:00 - - - - - -
21.04.2018 23:00:00 - - - - - -
21.04.2018 22:00:00 - - - - - -
21.04.2018 21:00:00 - - - - - -
21.04.2018 20:00:00 18,0 1,9 0 0 N 25
21.04.2018 19:00:00 20,0 0,0 - - - 10
21.04.2018 18:00:00 21,0 -4,0 - - - 10
21.04.2018 17:00:00 21,2 -4,0 0 0 N 25
21.04.2018 16:00:00 21,0 -3,0 - - - 10
21.04.2018 15:00:00 20,0 -2,0 - - - 10
21.04.2018 14:00:00 19,6 -1,5 0 0 N 25
21.04.2018 13:00:00 19,0 3,0 - - - 10
21.04.2018 12:00:00 17,0 3,0 - - - 10
21.04.2018 11:00:00 13,8 3,0 0 0 N 25
21.04.2018 10:00:00 11,0 7,0 - - - 10
21.04.2018 09:00:00 8,0 5,0 - - - 10
21.04.2018 08:00:00 7,0 4,5 0 0 N 20
21.04.2018 07:00:00 - - - - - -
21.04.2018 06:00:00 - - - - - -
21.04.2018 05:00:00 - - - - - -
21.04.2018 04:00:00 - - - - - -
21.04.2018 03:00:00 - - - - - -
21.04.2018 02:00:00 - - - - - -
21.04.2018 01:00:00 - - - - - -
21.04.2018 00:00:00 - - - - - -
20.04.2018 23:00:00 - - - - - -
20.04.2018 22:00:00 - - - - - -
20.04.2018 21:00:00 - - - - - -
20.04.2018 20:00:00 17,2 -1,5 0 0 N 25
20.04.2018 19:00:00 20,0 -3,0 - - - 10
20.04.2018 18:00:00 21,0 -4,0 - - - 10
20.04.2018 17:00:00 21,2 -5,6 0 0 N 25
20.04.2018 16:00:00 21,0 -8,0 - - - 10
20.04.2018 15:00:00 20,0 -8,0 - - - 10
20.04.2018 14:00:00 20,0 -5,0 0 0 N 25
20.04.2018 13:00:00 18,0 -5,0 - - - 10
20.04.2018 12:00:00 16,0 1,0 - - - 10
20.04.2018 11:00:00 12,8 1,5 0 0 N 25
20.04.2018 10:00:00 10,0 1,0 - - - 10
20.04.2018 09:00:00 8,0 2,0 - - - 10
20.04.2018 08:00:00 6,0 5,1 0 0 N 15
20.04.2018 07:00:00 - - - - - -
20.04.2018 06:00:00 - - - - - -
20.04.2018 05:00:00 - - - - - -
20.04.2018 04:00:00 - - - - - -
20.04.2018 03:00:00 - - - - - -
20.04.2018 02:00:00 - - - - - -
20.04.2018 01:00:00 - - - - - -
20.04.2018 00:00:00 - - - - - -
19.04.2018 23:00:00 - - - - - -
19.04.2018 22:00:00 - - - - - -
19.04.2018 21:00:00 - - - - - -
19.04.2018 20:00:00 16,6 3,0 0 0 N 25
19.04.2018 19:00:00 19,0 1,0 - - - 10
19.04.2018 18:00:00 19,0 -1,0 - - - 10
19.04.2018 17:00:00 20,2 -0,4 8 4 E 25
19.04.2018 16:00:00 20,0 -1,0 - - - 10
19.04.2018 15:00:00 20,0 -1,0 - - - 10
19.04.2018 14:00:00 19,4 -1,1 11 6 E 25
19.04.2018 13:00:00 18,0 -1,0 - - - 10
19.04.2018 12:00:00 16,0 2,0 - - - 10
19.04.2018 11:00:00 13,0 2,8 4 2 E 25
19.04.2018 10:00:00 10,0 3,0 - - - 10
19.04.2018 09:00:00 8,0 4,0 - - - 10
19.04.2018 08:00:00 5,8 3,5 0 0 N 20
19.04.2018 07:00:00 - - - - - -
19.04.2018 06:00:00 - - - - - -
19.04.2018 05:00:00 - - - - - -
19.04.2018 04:00:00 - - - - - -
19.04.2018 03:00:00 - - - - - -
19.04.2018 02:00:00 - - - - - -
19.04.2018 01:00:00 - - - - - -
19.04.2018 00:00:00 - - - - - -
18.04.2018 23:00:00 - - - - - -
18.04.2018 22:00:00 - - - - - -
18.04.2018 21:00:00 - - - - - -
18.04.2018 20:00:00 14,8 -1,3 0 0 N 25
18.04.2018 19:00:00 18,0 -8,0 - - - 10
18.04.2018 18:00:00 19,0 -11,0 - - - 10
18.04.2018 17:00:00 18,8 -13,5 5 3 E 25
18.04.2018 16:00:00 18,0 -14,0 - - - 10
18.04.2018 15:00:00 18,0 -14,0 - - - 10
18.04.2018 14:00:00 17,6 -14,4 5 3 E 25
18.04.2018 13:00:00 16,0 -7,0 - - - 10
18.04.2018 12:00:00 14,0 -2,0 - - - 10
18.04.2018 11:00:00 12,4 -0,8 0 0 N 25
18.04.2018 10:00:00 9,0 0,0 - - - 10

tt = Température de l'air
td = dewpoint
ff = Vitesse du vent
dd = Direction du vent
vv = visibility

stations d'obs. à proximité